createdAt,value
2023-03-06T06:10:20.802Z,28.97
2023-03-06T06:12:49.968Z,25.42
2023-03-06T06:15:37.725Z,23.99
2023-03-06T06:18:05.170Z,23.38
2023-03-06T06:20:32.434Z,23.07
2023-03-06T06:22:59.643Z,22.59
2023-03-06T06:25:27.065Z,22.68
2023-03-06T06:27:56.771Z,22.35
2023-03-06T06:30:25.065Z,22.27
2023-03-06T06:32:52.233Z,22.46
2023-03-06T06:35:19.497Z,22.20
2023-03-06T06:37:46.952Z,22.16
2023-03-06T06:40:14.655Z,21.88
2023-03-06T06:42:42.184Z,22.07
2023-03-06T06:45:11.117Z,21.96
2023-03-06T06:47:42.194Z,21.92
2023-03-06T06:50:13.936Z,21.93
2023-03-06T06:52:41.082Z,21.65
2023-03-06T06:55:08.918Z,21.98
2023-03-06T06:57:36.015Z,21.54
2023-03-06T07:00:04.372Z,21.64
2023-03-06T07:02:32.616Z,21.65
2023-03-06T07:05:04.525Z,21.45
2023-03-06T07:07:35.638Z,21.47
2023-03-06T07:10:05.802Z,21.34
2023-03-06T07:12:33.133Z,21.43
2023-03-06T07:15:00.154Z,21.45
2023-03-06T07:17:27.243Z,21.28
2023-03-06T07:19:54.538Z,21.43
2023-03-06T07:22:21.572Z,21.41
2023-03-06T07:24:48.783Z,21.49
2023-03-06T07:27:15.872Z,21.59
2023-03-06T07:29:44.252Z,21.41
2023-03-06T07:32:11.869Z,21.41
2023-03-06T07:34:41.563Z,21.51
2023-03-06T07:37:08.556Z,21.39
2023-03-06T07:39:35.665Z,21.16
2023-03-06T07:42:02.900Z,21.54
2023-03-06T07:45:07.091Z,21.35
2023-03-06T07:50:35.386Z,21.29
2023-03-06T07:53:02.649Z,21.19
2023-03-06T07:55:29.792Z,21.23
2023-03-06T07:58:00.162Z,21.13
2023-03-06T08:00:27.634Z,21.36
2023-03-06T08:02:54.882Z,21.26
2023-03-06T08:05:22.186Z,21.21
2023-03-06T08:07:49.204Z,21.00
2023-03-06T08:10:19.441Z,21.12
2023-03-06T08:12:46.668Z,21.30
2023-03-06T08:15:14.595Z,20.97
2023-03-06T08:17:41.817Z,21.09
2023-03-06T08:20:10.764Z,20.97
2023-03-06T08:22:38.490Z,21.19
2023-03-06T08:25:06.500Z,21.20
2023-03-06T08:27:34.873Z,21.02
2023-03-06T08:30:02.443Z,21.24
2023-03-06T08:32:29.711Z,20.90
2023-03-06T08:34:56.947Z,20.96
2023-03-06T08:37:24.143Z,21.09
2023-03-06T08:39:51.406Z,21.28
2023-03-06T08:42:18.721Z,21.26
2023-03-06T08:44:45.971Z,21.27
2023-03-06T08:47:13.058Z,21.00
2023-03-06T08:49:40.443Z,21.10
2023-03-06T08:52:08.237Z,21.07
2023-03-06T08:54:36.187Z,21.15
2023-03-06T08:57:03.789Z,20.92
2023-03-06T08:59:30.934Z,20.94
2023-03-06T09:01:58.157Z,21.30
2023-03-06T09:04:25.298Z,20.81
2023-03-06T09:06:54.433Z,20.73
2023-03-06T09:09:22.280Z,20.92
2023-03-06T09:11:51.519Z,20.75
2023-03-06T09:14:18.558Z,21.22
2023-03-06T09:16:45.587Z,20.75
2023-03-06T09:19:12.724Z,21.15
2023-03-06T09:21:39.811Z,20.95
2023-03-06T09:24:07.108Z,20.76
2023-03-06T09:26:45.533Z,21.02
2023-03-06T09:29:13.084Z,20.63
2023-03-06T09:31:40.335Z,21.02
2023-03-06T09:34:07.645Z,20.71
2023-03-06T09:36:45.858Z,21.09
2023-03-06T09:39:21.867Z,20.86
2023-03-06T09:41:51.343Z,21.01
2023-03-06T09:44:26.413Z,21.03
2023-03-06T09:46:59.477Z,21.06
2023-03-06T09:49:53.872Z,20.98
2023-03-06T09:53:03.049Z,20.94
2023-03-06T09:55:38.395Z,20.98
2023-03-06T09:58:16.704Z,20.71
2023-03-06T10:01:07.858Z,20.51
2023-03-06T10:03:54.685Z,20.74
2023-03-06T10:06:30.102Z,20.87
2023-03-06T10:09:26.645Z,20.47
2023-03-06T10:12:17.924Z,19.99
2023-03-06T10:14:49.741Z,19.54
2023-03-06T10:17:25.410Z,19.76
2023-03-06T10:19:55.621Z,20.33
2023-03-06T10:22:28.702Z,19.73
2023-03-06T10:25:23.303Z,19.68
2023-03-06T10:27:58.089Z,19.59
2023-03-06T10:30:46.334Z,19.70
2023-03-06T10:33:45.694Z,19.69
2023-03-06T10:36:16.498Z,19.22
2023-03-06T10:38:45.181Z,18.64
2023-03-06T10:41:12.290Z,18.55
2023-03-06T10:43:44.207Z,18.83
2023-03-06T10:46:33.693Z,18.55
2023-03-06T10:49:03.186Z,18.53
2023-03-06T10:51:31.417Z,18.21
2023-03-06T10:54:01.667Z,18.20
2023-03-06T10:57:06.061Z,17.99
2023-03-06T10:59:33.555Z,17.59
2023-03-06T11:02:24.539Z,18.01
2023-03-06T11:04:53.921Z,17.69
2023-03-06T11:18:43.255Z,17.73
2023-03-06T11:21:42.858Z,17.51
2023-03-06T11:24:20.408Z,17.95
2023-03-06T11:34:21.745Z,18.06
2023-03-06T11:44:23.896Z,18.12
2023-03-06T11:47:11.103Z,18.00
2023-03-06T11:50:06.920Z,17.83
2023-03-06T11:53:04.496Z,17.81
2023-03-06T11:55:47.544Z,17.86
2023-03-06T11:59:01.851Z,17.84
2023-03-06T12:02:23.321Z,18.06
2023-03-06T12:05:29.973Z,17.94
2023-03-06T12:08:44.322Z,17.83
2023-03-06T12:15:20.015Z,17.77
2023-03-06T12:18:29.362Z,18.00
